Hiawatha, KS

08:59 AM CDT 2018 apirila ren 22 an (GMT -0500)
South Hiawatha | | Change Station

Elev 1132 ft 39.85 °N, 95.54 °W | Updated 32 seconds ago

Estalia
Estalia
52.0 °F
Feels Like 52.0 °F
N
3.0
Haizea Aldagarria Haizea from IM
Gusts 8.0 mph

Gaur
High -- | Low -- °F
--% Chance of Precip.
Yesterday
High -- | Low -- °F
Precip. -- in
Presioa 30.17 in
Ikusgaitasuna 10.0 Miliak
Clouds Oskarbia
Ihintzaren maila 36 °F
Afoinua 54%
Rainfall 0.00 in
Snow Depth Not available.
6:34 AM 8:07 PM
Waxing Crescent, 46% visible
METAR KFNB 221353Z AUTO 05006KT 10SM CLR 11/01 A3017 RMK AO2 SLP217 T01060006
Presioa 30.17 in
Ikusgaitasuna 10.0 Miliak
Clouds Oskarbia
Ihintzaren maila 36 °F
Afoinua 54%
Rainfall 0.00 in
Snow Depth Not available.
6:34 AM 8:07 PM
Waxing Crescent, 46% visible
METAR KFNB 221353Z AUTO 05006KT 10SM CLR 11/01 A3017 RMK AO2 SLP217 T01060006

Get Severe Weather Alerts

Thanks for signing up!

Be on the lookout for a verification email in your inbox.

You'll start receiving the daily forecast at 6 AM.

×

10-Day Weather Forecast

Almanac

Astronomy

Apr. 22, 2018 Rise Set
Actual Time
Civil Twilight
Nautical Twilight
Astronomical Twilight
Moon
Length Of Visible Light
Length of Day
Tomorrow will be .
, % of the Moon is Illuminated

Today's Extremes

State Highs State Lows

Community

WunderPhotos

Category 6

Welcome to Category 6. This is the collective home for Weather Underground's featured writeups by Dr. Jeff Masters (right), Bob Henson (left), Chris Burt, and other regular contributors.

Nearby

Air Quality

  Air Quality AQ Index Pollutant
Not available.

Snow Depth

Station Depth Elevation

Earthquake Activity

City Distance Mag. Time & Date
Minimum magnitude displayed is 2.5.

Coastal Water Temperatures

Lekua Tenperatura

Stations

Nearby Weather Stations

Station Location Temp Izozki haizeak Ihintzaren maila Afoinua Haizea Precip. Elev Eguneratuta Type
                   

Watches & Warnings

There are currently no watches in effect.